Time;durP1;ratioP1;P1;durP2;ratioP2;P2;SDS_P1;SDS_P2;PMS_P1;PMS_P2;Temp;Humidity;BMP_temperature;BMP_pressure;BME280_temperature;BME280_humidity;BME280_pressure;Samples;Min_cycle;Max_cycle;Signal;HPM_P1;HPM_P2
2021/05/10 00:01:37;;;;;;;5.60;1.80;;;19.40;99.90;;;;;;5035497;28;20485;-81
2021/05/10 00:04:04;;;;;;;4.70;1.57;;;19.30;99.90;;;;;;5041236;28;20457;-83
2021/05/10 00:06:30;;;;;;;5.93;2.20;;;19.30;99.90;;;;;;5037049;28;20449;-81
2021/05/10 00:08:57;;;;;;;6.37;1.70;;;19.20;99.90;;;;;;5035673;28;20471;-83
2021/05/10 00:11:24;;;;;;;6.70;1.50;;;19.20;99.90;;;;;;5036044;28;20856;-82
2021/05/10 00:13:51;;;;;;;6.07;1.50;;;19.20;99.90;;;;;;5036209;28;20513;-83
2021/05/10 00:16:18;;;;;;;6.10;1.77;;;19.10;99.90;;;;;;5036171;28;20456;-83
2021/05/10 00:18:44;;;;;;;5.73;1.50;;;19.10;99.90;;;;;;5035568;28;20983;-82
2021/05/10 00:21:11;;;;;;;7.20;1.80;;;19.10;99.90;;;;;;5034910;28;20989;-82
2021/05/10 00:23:37;;;;;;;8.07;1.43;;;19.00;99.90;;;;;;5035918;28;20453;-84
2021/05/10 00:26:04;;;;;;;4.20;1.33;;;19.00;99.90;;;;;;5035503;28;20461;-83
2021/05/10 00:28:30;;;;;;;4.57;1.50;;;19.00;99.90;;;;;;5036111;28;20467;-82
2021/05/10 00:30:56;;;;;;;4.20;1.27;;;19.00;99.90;;;;;;5035544;28;20563;-84
2021/05/10 00:33:23;;;;;;;5.07;1.30;;;18.90;99.90;;;;;;5035194;28;20489;-82
2021/05/10 00:35:50;;;;;;;4.50;1.57;;;18.90;99.90;;;;;;5037737;28;21002;-84
2021/05/10 00:38:16;;;;;;;5.03;1.70;;;18.90;99.90;;;;;;5039420;28;20457;-83
2021/05/10 00:40:42;;;;;;;5.67;1.87;;;18.90;99.90;;;;;;5034981;28;20555;-82
2021/05/10 00:43:09;;;;;;;5.83;1.90;;;18.90;99.90;;;;;;5033628;28;20459;-81
2021/05/10 00:45:36;;;;;;;6.90;2.10;;;18.90;99.90;;;;;;5033862;28;20448;-80
2021/05/10 00:48:03;;;;;;;6.17;1.77;;;18.90;99.90;;;;;;5033627;28;20464;-81
2021/05/10 00:50:31;;;;;;;4.80;1.50;;;18.90;99.90;;;;;;5033923;28;20464;-80
2021/05/10 00:52:57;;;;;;;5.57;1.40;;;18.90;99.90;;;;;;5034134;28;20535;-80
2021/05/10 00:55:24;;;;;;;7.23;2.03;;;18.90;99.90;;;;;;5034131;28;20584;-81
2021/05/10 00:57:52;;;;;;;5.50;1.60;;;18.80;99.90;;;;;;5033883;28;20510;-79
2021/05/10 01:00:21;;;;;;;7.37;1.67;;;18.80;99.90;;;;;;5034289;28;20484;-80
2021/05/10 01:02:47;;;;;;;6.00;1.53;;;18.80;99.90;;;;;;5033661;28;20492;-80
2021/05/10 01:05:15;;;;;;;7.03;1.67;;;18.90;99.90;;;;;;5033408;28;20968;-79
2021/05/10 01:07:43;;;;;;;5.90;1.40;;;18.80;99.90;;;;;;5034441;28;20476;-81
2021/05/10 01:10:13;;;;;;;13.67;2.90;;;18.80;99.90;;;;;;5034373;28;20476;-81
2021/05/10 01:12:39;;;;;;;14.23;6.40;;;18.50;99.90;;;;;;5042296;28;20536;-83
2021/05/10 01:15:09;;;;;;;52.60;27.03;;;18.60;99.90;;;;;;5039322;28;20453;-83
2021/05/10 01:17:36;;;;;;;70.40;38.77;;;18.60;99.90;;;;;;5034169;28;20470;-81
2021/05/10 01:20:05;;;;;;;105.03;53.23;;;18.60;99.90;;;;;;5034363;28;20500;-82
2021/05/10 01:22:43;;;;;;;108.57;53.33;;;18.60;99.90;;;;;;5034279;28;20444;-81
2021/05/10 01:25:13;;;;;;;71.30;39.97;;;18.60;99.90;;;;;;5033320;28;20470;-80
2021/05/10 01:27:40;;;;;;;28.87;14.40;;;18.50;99.90;;;;;;5034535;28;20463;-81
2021/05/10 01:30:09;;;;;;;22.47;10.90;;;18.70;99.90;;;;;;5033010;28;20514;-81
2021/05/10 01:32:35;;;;;;;10.40;4.90;;;18.70;99.90;;;;;;5033877;28;20546;-82
2021/05/10 01:35:03;;;;;;;10.50;4.10;;;18.80;99.90;;;;;;5033966;28;20457;-80
2021/05/10 01:37:29;;;;;;;8.87;2.67;;;19.10;99.90;;;;;;5033080;28;20449;-81
2021/05/10 01:39:57;;;;;;;6.10;2.20;;;19.10;99.90;;;;;;5033345;28;20476;-81
2021/05/10 01:42:23;;;;;;;5.37;1.50;;;19.30;99.90;;;;;;5033090;28;20455;-82
2021/05/10 01:44:49;;;;;;;5.00;1.50;;;19.50;99.90;;;;;;5037326;28;20463;-83
2021/05/10 01:47:16;;;;;;;7.53;1.93;;;19.50;99.90;;;;;;5038356;28;20900;-82
2021/05/10 01:49:47;;;;;;;7.00;2.10;;;19.60;99.90;;;;;;5035059;28;21004;-84
2021/05/10 01:52:14;;;;;;;5.17;1.50;;;19.60;99.90;;;;;;5034379;28;20488;-83
2021/05/10 01:54:40;;;;;;;7.53;1.70;;;19.40;99.90;;;;;;5035391;28;20949;-83
2021/05/10 01:57:10;;;;;;;5.53;1.77;;;19.40;99.90;;;;;;5034742;28;20835;-82
2021/05/10 01:59:37;;;;;;;6.53;2.03;;;19.40;99.90;;;;;;5037326;28;20468;-81
2021/05/10 02:02:03;;;;;;;5.70;1.47;;;19.40;99.90;;;;;;5035189;28;20456;-82
2021/05/10 02:04:30;;;;;;;5.10;1.40;;;19.50;99.90;;;;;;5034952;28;20953;-83
2021/05/10 02:07:02;;;;;;;5.73;1.30;;;19.60;99.90;;;;;;5034248;28;20461;-81
2021/05/10 02:09:28;;;;;;;6.80;1.63;;;20.10;99.90;;;;;;5033913;28;20478;-81
2021/05/10 02:11:55;;;;;;;14.63;1.90;;;20.60;99.90;;;;;;5034095;28;20492;-82
2021/05/10 02:14:22;;;;;;;5.43;1.20;;;20.90;99.90;;;;;;5034149;28;20547;-81
2021/05/10 02:16:48;;;;;;;7.53;1.63;;;21.10;99.90;;;;;;5034253;28;20457;-81
2021/05/10 02:19:14;;;;;;;6.63;1.30;;;21.20;99.90;;;;;;5038531;28;20468;-82
2021/05/10 02:21:41;;;;;;;6.00;1.80;;;21.30;99.90;;;;;;5037626;28;20533;-83
2021/05/10 02:24:08;;;;;;;6.10;1.30;;;21.30;99.90;;;;;;5037974;28;20457;-82
2021/05/10 02:26:34;;;;;;;5.47;1.50;;;21.30;99.90;;;;;;5037987;28;20445;-84
2021/05/10 02:29:02;;;;;;;5.47;1.57;;;21.20;99.90;;;;;;5038446;28;20876;-84
2021/05/10 02:31:30;;;;;;;5.23;1.20;;;21.20;99.90;;;;;;5037885;28;20580;-81
2021/05/10 02:33:56;;;;;;;5.83;1.77;;;21.10;99.90;;;;;;5038564;28;20449;-81
2021/05/10 02:36:22;;;;;;;5.33;1.33;;;21.10;99.90;;;;;;5038299;28;20475;-82
2021/05/10 02:38:49;;;;;;;4.77;1.23;;;21.10;99.90;;;;;;5038151;28;20454;-81
2021/05/10 02:41:15;;;;;;;5.23;1.20;;;21.10;99.90;;;;;;5037583;28;20522;-84
2021/05/10 02:43:41;;;;;;;9.00;1.33;;;21.20;99.90;;;;;;5042271;28;20532;-83
2021/05/10 02:46:08;;;;;;;5.33;1.47;;;21.20;99.90;;;;;;5040325;28;20452;-80
2021/05/10 02:48:35;;;;;;;6.60;1.50;;;21.20;99.90;;;;;;5044252;28;20461;-81
2021/05/10 02:51:01;;;;;;;6.13;1.47;;;21.10;99.90;;;;;;5041354;28;20482;-84
2021/05/10 02:53:28;;;;;;;5.03;1.37;;;20.90;99.90;;;;;;5038179;28;20568;-84
2021/05/10 02:55:54;;;;;;;6.07;1.70;;;20.90;99.90;;;;;;5038414;28;20560;-84
2021/05/10 02:58:20;;;;;;;7.10;1.50;;;20.90;99.90;;;;;;5038206;28;20476;-84
2021/05/10 03:00:46;;;;;;;7.93;1.30;;;20.90;99.90;;;;;;5037864;28;20479;-83
2021/05/10 03:03:13;;;;;;;6.23;1.97;;;20.90;99.90;;;;;;5039478;28;20448;-82
2021/05/10 03:05:41;;;;;;;6.10;1.30;;;20.90;99.90;;;;;;5045004;28;20509;-79
2021/05/10 03:08:08;;;;;;;5.20;1.40;;;20.80;99.90;;;;;;5038395;28;20499;-81
2021/05/10 03:10:34;;;;;;;4.90;1.30;;;20.70;99.90;;;;;;5037082;28;20476;-83
2021/05/10 03:13:00;;;;;;;5.20;1.60;;;20.60;99.90;;;;;;5037623;28;20488;-81
2021/05/10 03:15:27;;;;;;;5.53;1.33;;;20.40;99.90;;;;;;5036635;28;20457;-84
2021/05/10 03:17:53;;;;;;;5.40;1.33;;;20.40;99.90;;;;;;5037305;28;20506;-84
2021/05/10 03:20:22;;;;;;;6.53;1.70;;;20.30;99.90;;;;;;5036893;28;20565;-83
2021/05/10 03:22:52;;;;;;;5.40;1.40;;;20.20;99.90;;;;;;5035962;28;20479;-81
2021/05/10 03:25:19;;;;;;;5.10;1.50;;;20.20;99.90;;;;;;5036720;28;20456;-83
2021/05/10 03:27:46;;;;;;;9.80;1.80;;;20.20;99.90;;;;;;5035829;28;20456;-82
2021/05/10 03:30:14;;;;;;;5.83;1.43;;;20.20;99.90;;;;;;5034919;28;20484;-81
2021/05/10 03:32:41;;;;;;;5.30;1.50;;;20.20;99.90;;;;;;5035764;28;21029;-83
2021/05/10 03:35:09;;;;;;;4.97;1.50;;;20.10;99.90;;;;;;5036444;28;20444;-82
2021/05/10 03:37:35;;;;;;;7.43;2.00;;;20.00;99.90;;;;;;5036489;28;20459;-83
2021/05/10 03:40:04;;;;;;;5.67;1.60;;;20.10;99.90;;;;;;5037562;28;20472;-86
2021/05/10 03:42:30;;;;;;;5.30;1.40;;;20.10;99.90;;;;;;5037617;28;20514;-85
2021/05/10 03:44:56;;;;;;;6.10;1.37;;;19.90;99.90;;;;;;5038031;28;20528;-84
2021/05/10 03:47:32;;;;;;;5.70;1.70;;;19.70;99.90;;;;;;5040424;28;20453;-85
2021/05/10 03:49:59;;;;;;;4.70;1.20;;;19.50;99.90;;;;;;5038024;28;20472;-81
2021/05/10 03:52:26;;;;;;;6.03;1.63;;;19.20;99.90;;;;;;5040443;28;20574;-81
2021/05/10 03:54:52;;;;;;;4.73;1.23;;;19.10;99.90;;;;;;5046321;28;20456;-79
2021/05/10 03:57:19;;;;;;;5.57;1.43;;;19.10;99.90;;;;;;5043762;28;20453;-79
2021/05/10 03:59:45;;;;;;;5.17;1.40;;;19.10;99.90;;;;;;5044051;28;20866;-80
2021/05/10 04:02:12;;;;;;;4.70;1.30;;;19.00;99.90;;;;;;5035514;28;20538;-81
2021/05/10 04:04:39;;;;;;;7.63;1.50;;;19.00;99.90;;;;;;5035775;28;20457;-83
2021/05/10 04:07:19;;;;;;;5.47;2.00;;;19.00;99.90;;;;;;5035061;28;20479;-81
2021/05/10 04:15:13;;;;;;;5.17;1.40;;;19.30;99.90;;;;;;5026610;28;20819;-81
2021/05/10 04:17:48;;;;;;;6.53;1.43;;;19.50;99.90;;;;;;5035740;28;20449;-80
2021/05/10 04:20:15;;;;;;;6.93;1.60;;;19.80;99.90;;;;;;5034944;28;20522;-81
2021/05/10 04:22:42;;;;;;;6.40;1.50;;;20.10;99.90;;;;;;5034321;28;20949;-81
2021/05/10 04:25:09;;;;;;;8.67;1.50;;;20.20;99.90;;;;;;5034519;28;20457;-81
2021/05/10 04:27:36;;;;;;;5.20;1.70;;;20.30;99.90;;;;;;5035057;28;20464;-81
2021/05/10 04:30:03;;;;;;;5.40;1.27;;;20.40;99.90;;;;;;5058381;23;20472;-84
2021/05/10 04:32:29;;;;;;;7.00;1.30;;;20.40;99.90;;;;;;5053753;28;20864;-85
2021/05/10 04:34:55;;;;;;;6.80;1.63;;;20.40;99.90;;;;;;5053825;28;20466;-84
2021/05/10 04:37:22;;;;;;;6.80;1.97;;;20.60;99.90;;;;;;5047816;28;20515;-84
2021/05/10 04:39:48;;;;;;;6.30;1.77;;;20.70;99.90;;;;;;5051217;28;20456;-84
2021/05/10 04:42:14;;;;;;;5.70;1.47;;;20.90;99.90;;;;;;5053964;28;20459;-83
2021/05/10 04:44:42;;;;;;;6.60;1.70;;;21.00;99.90;;;;;;5047021;28;20479;-84
2021/05/10 04:47:08;;;;;;;7.30;1.50;;;21.10;99.90;;;;;;5055138;28;20542;-84
2021/05/10 04:49:34;;;;;;;6.13;1.50;;;21.10;99.90;;;;;;5045853;28;20563;-87
2021/05/10 04:52:00;;;;;;;5.60;1.63;;;21.10;99.90;;;;;;5049117;28;20572;-87
2021/05/10 04:54:27;;;;;;;8.47;2.00;;;21.10;99.90;;;;;;5040225;28;20460;-84
2021/05/10 04:56:53;;;;;;;7.93;1.73;;;20.90;99.90;;;;;;5046430;28;20523;-87
2021/05/10 04:59:21;;;;;;;8.80;1.60;;;20.50;99.90;;;;;;5051343;28;20468;-86
2021/05/10 05:01:48;;;;;;;8.97;1.50;;;20.20;99.90;;;;;;5051847;28;20514;-87
2021/05/10 05:04:16;;;;;;;6.70;1.70;;;20.20;99.90;;;;;;5051456;28;20460;-86
2021/05/10 05:06:42;;;;;;;5.00;1.40;;;20.20;99.90;;;;;;5052286;28;20456;-87
2021/05/10 05:09:08;;;;;;;7.27;1.70;;;20.30;99.90;;;;;;5051778;28;20458;-89
2021/05/10 05:11:35;;;;;;;7.03;1.30;;;20.40;99.90;;;;;;5051395;28;20475;-88
2021/05/10 05:14:01;;;;;;;6.67;1.50;;;20.50;99.90;;;;;;5051335;28;20490;-86
2021/05/10 05:16:28;;;;;;;6.57;1.67;;;20.60;99.90;;;;;;5050507;28;20470;-87
2021/05/10 05:18:55;;;;;;;7.30;1.83;;;20.60;99.90;;;;;;5052958;28;20496;-87
2021/05/10 05:21:21;;;;;;;5.33;1.40;;;20.70;99.90;;;;;;5051481;28;20480;-88
2021/05/10 05:23:47;;;;;;;7.60;1.60;;;20.70;99.90;;;;;;5052252;28;20823;-87
2021/05/10 05:26:14;;;;;;;6.10;1.50;;;20.70;99.90;;;;;;5051053;28;20452;-87
2021/05/10 05:28:43;;;;;;;8.50;2.43;;;20.70;99.90;;;;;;5051992;28;20861;-86
2021/05/10 05:31:10;;;;;;;7.37;1.50;;;20.60;99.90;;;;;;5049049;28;20574;-86
2021/05/10 05:33:36;;;;;;;7.53;1.50;;;20.70;99.90;;;;;;5047517;28;20484;-88
2021/05/10 05:36:05;;;;;;;5.87;1.30;;;20.60;99.90;;;;;;5051444;28;20456;-89
2021/05/10 05:38:35;;;;;;;7.40;1.67;;;20.70;99.90;;;;;;5052805;28;20495;-89
2021/05/10 05:41:01;;;;;;;5.40;1.43;;;20.60;99.90;;;;;;5054215;28;20513;-89
2021/05/10 05:43:28;;;;;;;8.80;1.90;;;20.70;99.90;;;;;;5055070;28;20974;-88
2021/05/10 05:45:55;;;;;;;6.47;1.83;;;20.70;99.90;;;;;;5042786;28;20460;-89
2021/05/10 05:48:21;;;;;;;10.20;1.60;;;20.70;99.90;;;;;;5048703;28;20441;-88
2021/05/10 05:50:48;;;;;;;7.63;1.80;;;20.70;99.90;;;;;;5040017;28;20464;-89
2021/05/10 05:53:15;;;;;;;9.53;2.40;;;20.70;99.90;;;;;;5054173;28;20566;-86
2021/05/10 05:55:41;;;;;;;5.00;1.33;;;20.70;99.90;;;;;;5055567;28;21039;-87
2021/05/10 05:58:08;;;;;;;6.07;1.50;;;20.60;99.90;;;;;;5054596;28;20456;-89
2021/05/10 06:00:34;;;;;;;7.43;1.80;;;20.50;99.90;;;;;;5053269;28;20572;-87
2021/05/10 06:03:00;;;;;;;5.53;1.27;;;20.30;99.90;;;;;;5048841;28;20456;-87
2021/05/10 06:05:27;;;;;;;5.60;1.50;;;20.30;99.90;;;;;;5056849;28;20444;-87
2021/05/10 06:07:53;;;;;;;6.53;1.40;;;20.20;99.90;;;;;;5048404;28;20459;-87
2021/05/10 06:10:23;;;;;;;6.97;1.57;;;20.20;99.90;;;;;;5058002;28;20460;-89
2021/05/10 06:12:53;;;;;;;10.30;1.93;;;20.20;99.90;;;;;;5052529;28;20476;-88
2021/05/10 06:15:21;;;;;;;6.27;1.70;;;20.30;99.90;;;;;;5047242;28;20853;-87
2021/05/10 06:17:48;;;;;;;5.63;1.90;;;20.40;99.90;;;;;;5055796;28;20455;-87
2021/05/10 06:20:16;;;;;;;6.10;1.60;;;20.40;99.90;;;;;;5054016;28;20550;-87
2021/05/10 06:22:43;;;;;;;6.00;1.50;;;20.60;99.90;;;;;;5054827;28;20436;-89
2021/05/10 06:25:13;;;;;;;7.83;1.90;;;20.60;99.90;;;;;;5045535;28;20488;-87
2021/05/10 06:27:41;;;;;;;6.73;1.50;;;20.70;99.90;;;;;;5053935;28;20542;-87
2021/05/10 06:30:09;;;;;;;7.53;2.00;;;20.60;99.90;;;;;;5053796;28;20519;-87
2021/05/10 06:32:36;;;;;;;6.10;1.30;;;20.60;99.90;;;;;;5053727;28;20464;-87
2021/05/10 06:35:03;;;;;;;5.87;2.23;;;20.60;99.90;;;;;;5053236;28;20455;-87
2021/05/10 06:37:30;;;;;;;5.00;1.60;;;20.60;99.90;;;;;;5054953;28;20448;-88
2021/05/10 06:39:59;;;;;;;5.73;1.70;;;20.50;99.90;;;;;;5055006;28;20444;-86
2021/05/10 06:42:27;;;;;;;6.13;1.60;;;20.40;99.90;;;;;;5054474;28;20444;-87
2021/05/10 06:44:54;;;;;;;5.60;1.83;;;20.30;99.90;;;;;;5054039;28;20539;-87
2021/05/10 06:47:21;;;;;;;5.57;1.80;;;20.20;99.90;;;;;;5043808;28;20464;-87
2021/05/10 06:49:47;;;;;;;6.53;1.50;;;20.30;99.90;;;;;;5053397;28;20455;-85
2021/05/10 06:52:14;;;;;;;8.10;2.30;;;20.30;99.90;;;;;;5054214;28;20798;-87
2021/05/10 06:54:40;;;;;;;6.53;1.93;;;20.30;99.90;;;;;;5053637;28;20935;-86
2021/05/10 06:57:06;;;;;;;5.20;1.50;;;20.30;99.90;;;;;;5054593;28;20442;-86
2021/05/10 06:59:33;;;;;;;5.40;1.73;;;20.10;99.90;;;;;;5042168;28;20825;-87
2021/05/10 07:02:00;;;;;;;5.87;1.50;;;20.10;99.90;;;;;;5041480;28;20594;-86
2021/05/10 07:04:26;;;;;;;6.60;1.47;;;19.80;99.90;;;;;;5043095;28;20571;-86
2021/05/10 07:06:53;;;;;;;6.90;1.67;;;20.00;99.90;;;;;;5048605;28;20455;-87
2021/05/10 07:09:19;;;;;;;5.40;1.90;;;20.40;99.90;;;;;;5049367;28;20517;-86
2021/05/10 07:11:45;;;;;;;7.40;1.97;;;20.90;99.90;;;;;;5051266;28;20483;-86
2021/05/10 07:14:12;;;;;;;5.60;1.57;;;21.30;99.90;;;;;;5051955;28;21014;-86
2021/05/10 07:16:38;;;;;;;5.63;1.83;;;21.50;99.90;;;;;;5056070;28;20460;-85
2021/05/10 07:19:08;;;;;;;7.03;1.67;;;21.70;99.90;;;;;;5052453;28;20567;-86
2021/05/10 07:21:35;;;;;;;5.80;1.43;;;21.80;99.90;;;;;;5043046;28;20559;-86
2021/05/10 07:24:01;;;;;;;7.93;1.90;;;21.80;99.90;;;;;;5043543;28;20529;-86
2021/05/10 07:26:27;;;;;;;5.60;1.40;;;21.60;99.90;;;;;;5050735;28;20983;-84
2021/05/10 07:28:54;;;;;;;8.67;2.10;;;21.30;99.90;;;;;;5051738;28;20443;-87
2021/05/10 07:31:20;;;;;;;5.50;1.40;;;21.10;99.90;;;;;;5048075;28;20544;-86
2021/05/10 07:33:46;;;;;;;5.00;1.40;;;21.50;99.90;;;;;;5059483;28;20506;-87
2021/05/10 07:36:13;;;;;;;5.37;1.40;;;22.00;99.90;;;;;;5048452;28;20453;-88
2021/05/10 07:38:40;;;;;;;10.30;1.67;;;22.60;99.90;;;;;;5054483;28;20494;-86
2021/05/10 07:41:06;;;;;;;5.40;1.50;;;22.90;99.90;;;;;;5055132;28;20560;-85
2021/05/10 07:43:32;;;;;;;9.23;1.77;;;23.50;99.90;;;;;;5053794;28;20468;-86
2021/05/10 07:45:59;;;;;;;6.17;1.57;;;23.80;99.90;;;;;;5055514;28;20466;-87
2021/05/10 07:48:25;;;;;;;5.23;1.30;;;24.30;99.90;;;;;;5056610;28;20535;-85
2021/05/10 07:50:52;;;;;;;4.93;1.33;;;25.20;99.90;;;;;;5050942;28;20478;-86
2021/05/10 07:53:19;;;;;;;5.60;1.20;;;25.60;99.90;;;;;;5049781;28;20472;-86
2021/05/10 07:55:46;;;;;;;8.10;1.33;;;26.20;99.90;;;;;;5052258;28;20520;-87
2021/05/10 07:58:12;;;;;;;7.07;1.63;;;26.60;99.90;;;;;;5033522;28;20511;-85
2021/05/10 08:00:41;;;;;;;8.30;1.43;;;26.50;99.90;;;;;;5040428;28;20507;-87
2021/05/10 08:03:08;;;;;;;6.13;1.30;;;26.90;99.90;;;;;;5044493;28;20459;-84
2021/05/10 08:05:35;;;;;;;9.30;1.50;;;26.90;99.90;;;;;;5053039;28;20827;-87
2021/05/10 08:08:01;;;;;;;5.33;1.20;;;25.70;99.90;;;;;;5053802;28;20544;-85
2021/05/10 08:10:29;;;;;;;7.13;1.40;;;24.90;99.90;;;;;;5050928;28;20476;-85
2021/05/10 08:12:55;;;;;;;8.17;1.20;;;24.70;99.90;;;;;;5054864;28;21041;-85
2021/05/10 08:15:22;;;;;;;7.30;1.57;;;24.40;99.90;;;;;;5057653;28;20535;-84
2021/05/10 08:17:48;;;;;;;6.93;1.40;;;23.90;99.90;;;;;;5060500;28;20456;-85
2021/05/10 08:20:15;;;;;;;4.93;1.10;;;24.40;99.90;;;;;;5061593;28;20486;-85
2021/05/10 08:22:42;;;;;;;5.40;1.30;;;25.30;99.90;;;;;;5059267;28;20491;-84
2021/05/10 08:25:10;;;;;;;5.47;1.20;;;25.50;99.90;;;;;;5055268;28;20516;-85
2021/05/10 08:27:38;;;;;;;6.50;1.50;;;25.20;99.90;;;;;;5058690;28;20460;-86
2021/05/10 08:30:06;;;;;;;5.70;1.30;;;25.00;99.90;;;;;;5057833;28;20520;-86
2021/05/10 08:32:32;;;;;;;6.60;1.50;;;26.40;99.90;;;;;;5053240;28;20856;-85
2021/05/10 08:34:59;;;;;;;5.30;1.63;;;26.50;99.90;;;;;;5055472;28;20740;-86
2021/05/10 08:37:27;;;;;;;9.10;1.30;;;26.20;99.90;;;;;;5056351;28;20471;-84
2021/05/10 08:39:53;;;;;;;6.90;1.47;;;25.80;99.90;;;;;;5054909;28;20463;-85
2021/05/10 08:42:19;;;;;;;6.70;1.63;;;25.50;99.90;;;;;;5053715;28;20816;-85
2021/05/10 08:44:46;;;;;;;9.50;2.03;;;25.30;99.90;;;;;;5052957;28;21012;-86
2021/05/10 08:47:13;;;;;;;8.93;1.70;;;25.00;99.90;;;;;;5053585;28;20448;-86
2021/05/10 08:49:39;;;;;;;5.47;1.40;;;25.30;99.90;;;;;;5054149;28;20452;-86
2021/05/10 08:52:06;;;;;;;5.17;1.67;;;25.90;99.90;;;;;;5051558;28;20499;-87
2021/05/10 08:54:33;;;;;;;9.50;1.47;;;25.50;99.90;;;;;;5054427;28;20988;-88
2021/05/10 08:57:01;;;;;;;6.90;1.23;;;25.00;99.90;;;;;;5052416;28;20626;-87
2021/05/10 08:59:28;;;;;;;5.20;1.10;;;24.30;99.90;;;;;;5051472;28;20459;-86
2021/05/10 09:01:59;;;;;;;5.17;0.90;;;23.60;99.90;;;;;;5050732;28;20507;-86
2021/05/10 09:04:32;;;;;;;8.30;1.77;;;23.20;99.90;;;;;;5051171;28;20491;-87
2021/05/10 09:07:12;;;;;;;7.27;1.13;;;22.90;99.90;;;;;;5053485;28;20522;-84
2021/05/10 09:09:57;;;;;;;5.03;1.00;;;22.70;99.90;;;;;;5054610;28;20452;-85
2021/05/10 09:12:23;;;;;;;6.13;1.30;;;22.60;99.90;;;;;;5054608;28;20456;-83
2021/05/10 09:14:51;;;;;;;6.70;1.03;;;22.30;99.90;;;;;;5056330;28;20969;-85
2021/05/10 09:17:18;;;;;;;8.40;1.10;;;22.00;99.90;;;;;;5061456;28;20515;-84
2021/05/10 09:19:56;;;;;;;8.80;1.53;;;21.70;99.90;;;;;;5057700;28;20456;-85
2021/05/10 09:22:23;;;;;;;8.17;1.10;;;21.30;99.90;;;;;;5059875;28;20938;-83
2021/05/10 09:24:51;;;;;;;5.80;0.93;;;21.20;99.90;;;;;;5053488;28;20456;-82
2021/05/10 09:27:26;;;;;;;7.47;1.37;;;21.10;99.90;;;;;;5052345;28;20523;-84
2021/05/10 09:30:08;;;;;;;5.03;1.10;;;21.20;99.90;;;;;;5055487;28;21146;-82
2021/05/10 09:32:36;;;;;;;5.50;1.00;;;21.00;99.90;;;;;;5049994;28;20567;-85
2021/05/10 09:35:25;;;;;;;6.73;0.97;;;21.00;99.90;;;;;;5057717;28;20544;-83
2021/05/10 09:38:00;;;;;;;6.70;1.10;;;21.00;99.90;;;;;;5055319;28;20523;-83
2021/05/10 09:40:29;;;;;;;5.07;0.97;;;21.00;99.90;;;;;;5055107;28;20478;-86
2021/05/10 09:42:58;;;;;;;6.57;1.00;;;21.20;99.90;;;;;;5052635;28;20506;-83
2021/05/10 09:45:39;;;;;;;4.73;0.90;;;21.30;99.90;;;;;;5054752;28;20455;-84
2021/05/10 09:48:09;;;;;;;5.33;1.10;;;21.70;99.90;;;;;;5053724;28;20502;-84
2021/05/10 09:50:37;;;;;;;7.13;1.00;;;22.30;99.90;;;;;;5053721;28;20555;-83
2021/05/10 09:53:04;;;;;;;5.23;1.00;;;22.40;99.90;;;;;;5052716;28;20494;-84
2021/05/10 09:55:47;;;;;;;6.50;1.10;;;22.30;99.90;;;;;;5056263;28;20483;-84
2021/05/10 09:58:15;;;;;;;6.67;0.80;;;22.90;99.90;;;;;;5051205;28;20524;-85
2021/05/10 10:00:42;;;;;;;4.87;1.20;;;24.00;99.90;;;;;;5057051;28;20562;-85
2021/05/10 10:03:31;;;;;;;4.97;0.80;;;25.00;99.90;;;;;;5052183;28;20547;-82
2021/05/10 10:06:00;;;;;;;4.67;1.00;;;25.60;99.90;;;;;;5047076;28;20464;-84
2021/05/10 10:08:27;;;;;;;5.00;0.93;;;25.80;99.90;;;;;;5052959;28;20458;-85
2021/05/10 10:10:54;;;;;;;5.83;1.10;;;25.30;99.90;;;;;;5049691;28;20596;-83
2021/05/10 10:13:21;;;;;;;6.67;0.70;;;24.60;99.90;;;;;;5047132;28;20524;-84
2021/05/10 10:15:47;;;;;;;6.10;0.90;;;24.70;99.90;;;;;;5054047;28;20459;-83
2021/05/10 10:18:17;;;;;;;5.40;0.87;;;24.70;99.90;;;;;;5052749;28;20459;-83
2021/05/10 10:20:46;;;;;;;5.90;1.07;;;24.20;99.90;;;;;;5053155;28;20540;-85
2021/05/10 10:23:14;;;;;;;6.00;1.00;;;24.10;99.90;;;;;;5051106;28;20443;-85
2021/05/10 10:25:42;;;;;;;6.47;0.80;;;23.80;99.90;;;;;;5049283;28;20456;-84
2021/05/10 10:28:09;;;;;;;6.80;0.77;;;23.50;99.90;;;;;;5053092;28;20462;-85
2021/05/10 10:30:40;;;;;;;4.90;0.80;;;23.10;99.90;;;;;;5039959;28;22214;-84
2021/05/10 10:33:10;;;;;;;5.77;1.20;;;23.50;99.90;;;;;;5045404;28;21148;-85
2021/05/10 10:35:42;;;;;;;4.80;1.00;;;23.70;99.90;;;;;;5048550;28;20455;-85
2021/05/10 10:38:10;;;;;;;4.00;0.70;;;23.60;99.90;;;;;;5051924;28;20443;-84
2021/05/10 10:40:39;;;;;;;6.40;0.90;;;23.10;99.90;;;;;;5054754;28;20827;-84
2021/05/10 10:43:21;;;;;;;5.50;0.90;;;22.70;99.90;;;;;;5048794;28;20540;-86
2021/05/10 10:46:20;;;;;;;4.73;0.87;;;22.60;99.90;;;;;;5050072;28;20456;-82
2021/05/10 10:48:48;;;;;;;4.83;1.00;;;22.50;99.90;;;;;;5054164;28;21301;-85
2021/05/10 10:51:15;;;;;;;4.50;0.90;;;22.40;99.90;;;;;;5054393;28;20474;-86
2021/05/10 10:53:43;;;;;;;6.03;1.83;;;22.30;99.90;;;;;;5059562;28;20483;-84
2021/05/10 10:56:09;;;;;;;5.97;1.10;;;22.30;99.90;;;;;;5057100;28;20476;-84
2021/05/10 10:58:37;;;;;;;5.40;1.00;;;23.00;99.90;;;;;;5061341;28;20459;-84
2021/05/10 11:01:07;;;;;;;4.73;1.00;;;23.70;99.90;;;;;;5055254;28;20487;-86
2021/05/10 11:03:35;;;;;;;6.40;1.07;;;23.90;99.90;;;;;;5051134;28;20459;-84
2021/05/10 11:06:01;;;;;;;4.60;0.90;;;23.80;99.90;;;;;;5057342;28;20490;-84
2021/05/10 11:08:48;;;;;;;4.70;0.80;;;24.40;99.90;;;;;;5047521;28;20491;-84
2021/05/10 11:11:39;;;;;;;5.80;2.30;;;24.60;99.90;;;;;;5056059;28;20468;-86
2021/05/10 11:14:06;;;;;;;5.50;0.90;;;24.60;99.90;;;;;;5056605;28;20558;-84
2021/05/10 11:16:50;;;;;;;7.07;2.53;;;25.00;99.90;;;;;;5056042;28;21135;-86
2021/05/10 11:19:30;;;;;;;7.10;1.00;;;26.90;99.90;;;;;;5055890;28;20452;-84
2021/05/10 11:21:58;;;;;;;5.50;0.80;;;28.80;98.50;;;;;;5057538;28;20484;-84
2021/05/10 11:24:31;;;;;;;5.10;0.80;;;28.60;95.50;;;;;;5048714;28;20535;-84
2021/05/10 11:27:01;;;;;;;6.07;0.90;;;27.10;96.40;;;;;;5047573;28;20448;-85
2021/05/10 11:29:49;;;;;;;6.23;1.20;;;26.00;97.20;;;;;;5042194;28;20448;-83
2021/05/10 11:32:31;;;;;;;4.90;0.90;;;25.60;98.20;;;;;;5053656;28;20464;-84
2021/05/10 11:35:25;;;;;;;5.63;0.90;;;25.50;97.00;;;;;;5055597;28;20908;-85
2021/05/10 11:38:07;;;;;;;7.70;1.13;;;25.00;97.70;;;;;;5056463;28;20542;-84
2021/05/10 11:40:35;;;;;;;4.97;1.00;;;24.70;99.90;;;;;;5053265;28;20494;-84
2021/05/10 11:43:38;;;;;;;4.37;0.80;;;25.00;98.90;;;;;;5058939;28;20448;-85
2021/05/10 11:46:04;;;;;;;5.43;0.87;;;25.30;98.40;;;;;;5022745;28;20463;-86
2021/05/10 11:48:40;;;;;;;4.97;0.90;;;26.20;99.40;;;;;;5054978;28;20547;-85
2021/05/10 11:51:20;;;;;;;5.30;1.00;;;27.00;97.80;;;;;;5053094;28;20484;-84
2021/05/10 11:53:46;;;;;;;6.77;1.00;;;27.30;97.70;;;;;;5045245;28;20483;-85
2021/05/10 11:56:24;;;;;;;5.20;1.30;;;27.20;96.70;;;;;;5054836;28;21119;-84
2021/05/10 11:58:56;;;;;;;5.20;1.20;;;26.70;97.80;;;;;;5051799;28;20618;-84
2021/05/10 12:01:35;;;;;;;5.27;1.03;;;27.00;97.80;;;;;;5053147;28;20474;-84
2021/05/10 12:04:23;;;;;;;5.77;1.03;;;26.80;97.50;;;;;;5057190;28;20447;-84
2021/05/10 12:06:50;;;;;;;5.90;1.17;;;26.20;96.50;;;;;;5056684;28;20467;-84
2021/05/10 12:09:33;;;;;;;5.77;1.17;;;25.70;98.60;;;;;;5051639;28;20456;-85
2021/05/10 12:12:01;;;;;;;5.13;1.00;;;25.20;98.10;;;;;;5057812;28;20473;-85
2021/05/10 12:14:28;;;;;;;6.60;1.00;;;24.70;99.30;;;;;;5062151;28;20482;-84
2021/05/10 12:17:04;;;;;;;6.17;1.10;;;24.20;99.90;;;;;;5063440;28;20440;-86
2021/05/10 12:19:54;;;;;;;6.47;1.10;;;23.70;99.90;;;;;;5063991;28;20490;-86
2021/05/10 12:22:22;;;;;;;5.40;1.00;;;23.10;99.90;;;;;;5061613;28;20458;-84
2021/05/10 12:24:59;;;;;;;4.70;1.00;;;22.60;99.90;;;;;;5056030;28;20503;-84
2021/05/10 12:27:31;;;;;;;5.40;1.20;;;22.50;99.90;;;;;;5039065;28;20518;-85
2021/05/10 12:29:58;;;;;;;6.70;1.20;;;22.20;99.90;;;;;;5049376;28;20456;-83
2021/05/10 12:32:24;;;;;;;5.10;1.40;;;22.50;99.90;;;;;;5054438;28;20436;-85
2021/05/10 12:34:51;;;;;;;5.07;1.20;;;22.80;99.90;;;;;;5055492;28;20485;-86
2021/05/10 12:37:18;;;;;;;6.03;1.17;;;23.00;99.90;;;;;;5053737;28;20466;-85
2021/05/10 12:39:46;;;;;;;4.50;1.10;;;22.90;99.90;;;;;;5054405;28;21015;-85
2021/05/10 12:42:14;;;;;;;4.60;1.30;;;22.90;99.90;;;;;;5050497;28;20563;-85
2021/05/10 12:44:41;;;;;;;13.43;1.30;;;22.70;99.90;;;;;;5035268;28;20479;-86
2021/05/10 12:47:08;;;;;;;4.50;1.10;;;23.20;99.90;;;;;;5041859;28;20456;-84
2021/05/10 12:49:42;;;;;;;5.93;1.10;;;23.50;99.90;;;;;;5045660;28;20485;-84
2021/05/10 12:52:09;;;;;;;6.80;1.27;;;23.50;99.90;;;;;;5052808;28;20498;-85
2021/05/10 12:54:41;;;;;;;4.53;1.00;;;24.10;99.90;;;;;;5053715;28;20923;-85
2021/05/10 12:57:08;;;;;;;5.63;1.10;;;23.80;99.90;;;;;;5042833;28;20984;-85
2021/05/10 12:59:48;;;;;;;5.70;1.10;;;23.40;99.90;;;;;;5044758;28;20995;-85